Weather at Nove Mesto Airport

Public forecast

Using degrees Celsius for public forecast. Weather courtesy of forecast.io.

Closest aviation weather report (METAR) to Nove Mesto Airport

Closest report is Pardubice Airport, 25.5 nm (47.3 km) SW. Retrieved 2020/11/25 04:30 UTC (0 seconds ago):

LKPD 250430Z 12002KT 8000 OVC015 00/M00 Q1024 NOSIG

Closest aviation forecast (TAF) to Nove Mesto Airport

Closest forecast is Pardubice Airport, 25.5 nm (47.3 km) SW. Retrieved 2020-11-25 00:00 UTC (4 hours ago):

TAF LKPD 242300Z 2500/2600 12005KT 6000 OVC010 TEMPO 2500/2509 VRB02KT 3000 MIFG BR BKN005 PROB30 TEMPO 2500/2508 VRB02KT 0700 FZFG BKN002 BECMG 2509/2511 9999 SCT010 BKN020 TEMPO 2513/2520 SCT030